createdAt,value
2018-12-24T00:00:25.480Z,13.20
2018-12-24T00:02:53.516Z,13.20
2018-12-24T00:05:20.727Z,13.20
2018-12-24T00:07:48.635Z,13.10
2018-12-24T00:10:16.243Z,13.10
2018-12-24T00:12:43.452Z,13.10
2018-12-24T00:15:10.697Z,13.10
2018-12-24T00:17:37.940Z,13.10
2018-12-24T00:20:05.601Z,13.20
2018-12-24T00:22:33.431Z,13.30
2018-12-24T00:25:00.901Z,13.30
2018-12-24T00:27:29.233Z,13.50
2018-12-24T00:29:57.127Z,13.30
2018-12-24T00:32:24.534Z,12.60
2018-12-24T00:34:52.827Z,11.70
2018-12-24T00:37:20.087Z,11.20
2018-12-24T00:39:47.897Z,10.80
2018-12-24T00:42:15.905Z,10.50
2018-12-24T00:44:44.235Z,10.30
2018-12-24T00:47:12.013Z,10.20
2018-12-24T00:49:39.521Z,10.20
2018-12-24T00:52:07.232Z,10.00
2018-12-24T00:54:34.754Z,10.00
2018-12-24T00:57:02.316Z,10.00
2018-12-24T00:59:30.170Z,9.90
2018-12-24T01:01:57.405Z,9.90
2018-12-24T01:04:24.911Z,9.80
2018-12-24T01:06:52.460Z,9.70
2018-12-24T01:09:20.397Z,9.60
2018-12-24T01:11:48.629Z,9.60
2018-12-24T01:14:16.185Z,9.70
2018-12-24T01:16:44.351Z,9.60
2018-12-24T01:19:11.829Z,9.70
2018-12-24T01:21:39.043Z,9.70
2018-12-24T01:24:06.407Z,9.70
2018-12-24T01:26:33.622Z,9.50
2018-12-24T01:29:00.975Z,9.40
2018-12-24T01:31:28.748Z,9.40
2018-12-24T01:33:56.319Z,9.30
2018-12-24T01:36:24.085Z,9.10
2018-12-24T01:38:51.311Z,9.10
2018-12-24T01:41:18.898Z,9.10
2018-12-24T01:43:46.343Z,9.00
2018-12-24T01:46:13.855Z,8.90
2018-12-24T01:48:41.918Z,8.80
2018-12-24T01:51:09.371Z,8.80
2018-12-24T01:53:37.310Z,8.80
2018-12-24T01:56:05.177Z,8.80
2018-12-24T01:58:32.445Z,8.80
2018-12-24T02:00:59.681Z,8.80
2018-12-24T02:03:26.892Z,8.70
2018-12-24T02:05:54.423Z,8.60
2018-12-24T02:08:21.989Z,8.60
2018-12-24T02:10:49.922Z,8.50
2018-12-24T02:13:17.252Z,8.60
2018-12-24T02:15:45.414Z,8.50
2018-12-24T02:18:12.967Z,8.50
2018-12-24T02:20:41.167Z,8.50
2018-12-24T02:23:09.089Z,8.50
2018-12-24T02:25:36.613Z,8.50
2018-12-24T02:28:04.840Z,8.50
2018-12-24T02:30:32.522Z,8.50
2018-12-24T02:32:59.745Z,8.50
2018-12-24T02:35:27.225Z,8.50
2018-12-24T02:37:54.970Z,8.50
2018-12-24T02:40:22.718Z,8.40
2018-12-24T02:42:52.457Z,8.20
2018-12-24T02:45:20.443Z,8.20
2018-12-24T02:47:48.087Z,8.10
2018-12-24T02:50:15.833Z,8.00
2018-12-24T02:52:43.428Z,8.00
2018-12-24T02:55:11.469Z,7.90
2018-12-24T02:57:39.155Z,7.90
2018-12-24T03:00:07.088Z,7.80
2018-12-24T03:02:34.801Z,7.80
2018-12-24T03:05:02.556Z,7.80
2018-12-24T03:07:30.369Z,7.70
2018-12-24T03:09:58.043Z,7.70
2018-12-24T03:12:25.862Z,7.70
2018-12-24T03:14:53.983Z,7.70
2018-12-24T03:17:21.601Z,7.70
2018-12-24T03:19:49.427Z,7.80
2018-12-24T03:22:17.337Z,7.80
2018-12-24T03:24:45.136Z,7.70
2018-12-24T03:27:13.016Z,7.80
2018-12-24T03:29:41.187Z,7.70
2018-12-24T03:32:08.956Z,7.70
2018-12-24T03:34:36.714Z,7.60
2018-12-24T03:37:04.569Z,7.60
2018-12-24T03:39:32.628Z,7.70
2018-12-24T03:42:00.807Z,7.60
2018-12-24T03:44:28.369Z,7.50
2018-12-24T03:46:55.595Z,7.50
2018-12-24T03:49:23.116Z,7.40
2018-12-24T03:51:51.380Z,7.40
2018-12-24T03:54:19.153Z,7.30
2018-12-24T03:56:46.589Z,7.30
2018-12-24T03:59:14.255Z,7.20
2018-12-24T04:01:41.485Z,7.30
2018-12-24T04:04:09.281Z,7.30
2018-12-24T04:06:36.491Z,7.20
2018-12-24T04:09:05.579Z,7.30
2018-12-24T04:11:33.291Z,7.30
2018-12-24T04:14:01.059Z,7.20
2018-12-24T04:16:28.603Z,7.20
2018-12-24T04:18:56.321Z,7.20
2018-12-24T04:21:23.805Z,7.20
2018-12-24T04:23:51.793Z,7.20
2018-12-24T04:26:19.061Z,7.20
2018-12-24T04:28:46.396Z,7.20
2018-12-24T04:31:14.234Z,7.10
2018-12-24T04:33:41.453Z,7.00
2018-12-24T04:36:09.381Z,7.00
2018-12-24T04:38:37.167Z,7.00
2018-12-24T04:41:04.656Z,7.00
2018-12-24T04:43:32.635Z,6.90
2018-12-24T04:46:00.770Z,7.00
2018-12-24T04:48:29.017Z,7.10
2018-12-24T04:50:56.257Z,7.20
2018-12-24T04:53:23.917Z,7.10
2018-12-24T04:55:51.426Z,7.00
2018-12-24T04:58:19.487Z,7.00
2018-12-24T05:00:47.301Z,7.00
2018-12-24T05:03:15.129Z,7.10
2018-12-24T05:05:42.335Z,7.10
2018-12-24T05:08:10.429Z,7.10
2018-12-24T05:10:37.907Z,7.10
2018-12-24T05:13:05.141Z,7.10
2018-12-24T05:15:32.361Z,7.10
2018-12-24T05:17:59.854Z,7.20
2018-12-24T05:20:27.941Z,7.20
2018-12-24T05:22:55.664Z,7.20
2018-12-24T05:25:23.121Z,7.20
2018-12-24T05:27:50.931Z,7.10
2018-12-24T05:30:18.411Z,7.10
2018-12-24T05:32:45.939Z,7.10
2018-12-24T05:35:13.403Z,7.10
2018-12-24T05:37:41.098Z,7.20
2018-12-24T05:40:08.634Z,7.20
2018-12-24T05:42:36.906Z,7.20
2018-12-24T05:45:04.837Z,7.20
2018-12-24T05:47:32.057Z,7.20
2018-12-24T05:49:59.786Z,7.20
2018-12-24T05:52:27.828Z,7.20
2018-12-24T05:54:55.875Z,7.10
2018-12-24T05:57:23.874Z,7.20
2018-12-24T05:59:51.696Z,7.20
2018-12-24T06:02:19.724Z,7.30
2018-12-24T06:04:47.500Z,7.30
2018-12-24T06:07:14.703Z,7.30
2018-12-24T06:09:41.930Z,7.40
2018-12-24T06:12:09.600Z,7.30
2018-12-24T06:14:37.351Z,7.30
2018-12-24T06:17:05.106Z,7.10
2018-12-24T06:19:32.452Z,6.90
2018-12-24T06:22:00.428Z,7.10
2018-12-24T06:24:27.761Z,7.10
2018-12-24T06:26:55.201Z,7.00
2018-12-24T06:29:23.705Z,7.00
2018-12-24T06:31:51.733Z,7.00
2018-12-24T06:34:19.807Z,6.90
2018-12-24T06:36:47.661Z,6.90
2018-12-24T06:39:15.805Z,6.80
2018-12-24T06:41:43.515Z,6.80
2018-12-24T06:44:11.077Z,6.80
2018-12-24T06:46:38.985Z,6.80
2018-12-24T06:49:06.229Z,6.70
2018-12-24T06:51:33.750Z,6.70
2018-12-24T06:54:01.531Z,6.60
2018-12-24T06:56:28.993Z,6.50
2018-12-24T06:58:57.299Z,6.60
2018-12-24T07:01:25.381Z,6.60
2018-12-24T07:03:53.719Z,6.60
2018-12-24T07:06:21.871Z,6.60
2018-12-24T07:08:49.661Z,6.60
2018-12-24T07:11:17.577Z,6.70
2018-12-24T07:13:45.599Z,6.70
2018-12-24T07:16:13.387Z,6.70
2018-12-24T07:18:41.764Z,6.90
2018-12-24T07:21:09.013Z,7.00
2018-12-24T07:23:36.647Z,7.00
2018-12-24T07:26:04.491Z,7.00
2018-12-24T07:28:31.960Z,6.90
2018-12-24T07:31:00.102Z,7.00
2018-12-24T07:33:27.824Z,7.00
2018-12-24T07:35:55.799Z,7.00
2018-12-24T07:38:24.510Z,7.00
2018-12-24T07:40:52.119Z,7.00
2018-12-24T07:43:19.781Z,7.00
2018-12-24T07:45:47.427Z,7.10
2018-12-24T07:48:15.145Z,7.20
2018-12-24T07:50:43.320Z,7.10
2018-12-24T07:53:10.933Z,7.10
2018-12-24T07:55:38.513Z,7.10
2018-12-24T07:58:06.353Z,7.00
2018-12-24T08:00:33.579Z,6.90
2018-12-24T08:03:01.435Z,7.00
2018-12-24T08:05:29.167Z,7.00
2018-12-24T08:07:57.036Z,7.00
2018-12-24T08:10:24.957Z,6.90
2018-12-24T08:12:52.651Z,7.00
2018-12-24T08:15:20.294Z,7.20
2018-12-24T08:17:48.447Z,7.30
2018-12-24T08:20:16.371Z,7.40
2018-12-24T08:22:44.081Z,7.50
2018-12-24T08:25:12.012Z,7.50
2018-12-24T08:27:40.359Z,7.40
2018-12-24T08:30:08.605Z,7.40
2018-12-24T08:32:36.125Z,7.30
2018-12-24T08:35:03.944Z,7.50
2018-12-24T08:37:32.095Z,7.50
2018-12-24T08:39:59.803Z,7.40
2018-12-24T08:42:27.493Z,7.40
2018-12-24T08:44:55.083Z,7.30
2018-12-24T08:47:22.397Z,7.20
2018-12-24T08:49:49.939Z,7.10
2018-12-24T08:52:17.485Z,7.00
2018-12-24T08:54:45.631Z,7.00
2018-12-24T08:57:13.601Z,6.90
2018-12-24T08:59:41.129Z,6.90
2018-12-24T09:02:08.354Z,7.00
2018-12-24T09:04:35.585Z,6.90
2018-12-24T09:07:03.219Z,6.90
2018-12-24T09:09:30.779Z,6.90
2018-12-24T09:11:58.181Z,7.00
2018-12-24T09:14:25.545Z,7.00
2018-12-24T09:16:53.145Z,7.20
2018-12-24T09:19:20.785Z,7.20
2018-12-24T09:21:48.676Z,7.40
2018-12-24T09:24:16.172Z,7.40
2018-12-24T09:26:44.217Z,7.50
2018-12-24T09:29:11.837Z,7.50
2018-12-24T09:31:39.379Z,7.50
2018-12-24T09:34:06.823Z,7.50
2018-12-24T09:36:34.181Z,7.50
2018-12-24T09:39:01.941Z,7.50
2018-12-24T09:41:29.607Z,7.50
2018-12-24T09:43:57.843Z,7.60
2018-12-24T09:46:25.507Z,7.50
2018-12-24T09:48:53.360Z,7.50
2018-12-24T09:51:21.050Z,7.50
2018-12-24T09:53:49.057Z,7.50
2018-12-24T09:56:16.575Z,7.50
2018-12-24T09:58:43.793Z,7.60
2018-12-24T10:01:11.337Z,7.80
2018-12-24T10:03:46.247Z,7.80
2018-12-24T10:06:17.477Z,7.90
2018-12-24T10:08:45.016Z,8.00
2018-12-24T10:11:12.539Z,8.20
2018-12-24T10:13:41.163Z,8.40
2018-12-24T10:16:08.715Z,8.60
2018-12-24T10:18:36.485Z,8.80
2018-12-24T10:21:03.717Z,8.80
2018-12-24T10:23:31.285Z,8.80
2018-12-24T10:25:59.039Z,8.60
2018-12-24T10:28:26.544Z,8.40
2018-12-24T10:30:53.926Z,8.30
2018-12-24T10:33:21.473Z,8.20
2018-12-24T10:35:48.693Z,8.10
2018-12-24T10:38:16.328Z,8.00
2018-12-24T10:40:51.287Z,8.10
2018-12-24T10:43:19.337Z,8.10
2018-12-24T10:45:47.237Z,8.10
2018-12-24T10:48:15.227Z,8.20
2018-12-24T10:50:42.815Z,8.20
2018-12-24T10:53:10.369Z,8.20
2018-12-24T10:55:38.346Z,8.20
2018-12-24T10:58:05.665Z,8.20
2018-12-24T11:00:33.559Z,8.20
2018-12-24T11:03:01.269Z,8.30
2018-12-24T11:05:29.135Z,8.20
2018-12-24T11:07:57.177Z,8.20
2018-12-24T11:10:25.404Z,8.10
2018-12-24T11:12:53.303Z,8.20
2018-12-24T11:15:25.073Z,8.20
2018-12-24T11:17:50.727Z,8.10
2018-12-24T11:20:18.062Z,8.10
2018-12-24T11:22:45.567Z,8.20
2018-12-24T11:25:13.636Z,8.10
2018-12-24T11:27:42.405Z,8.10
2018-12-24T11:30:09.749Z,8.10
2018-12-24T11:32:36.951Z,8.10
2018-12-24T11:35:04.602Z,8.10
2018-12-24T11:37:32.123Z,8.10
2018-12-24T11:39:59.991Z,8.20
2018-12-24T11:42:27.708Z,8.30
2018-12-24T11:44:55.620Z,8.30
2018-12-24T11:47:23.029Z,8.30
2018-12-24T11:49:50.631Z,8.30
2018-12-24T11:52:18.595Z,8.30
2018-12-24T11:54:46.017Z,8.40
2018-12-24T11:57:13.941Z,8.30
2018-12-24T11:59:41.162Z,8.20
2018-12-24T12:02:10.066Z,8.20
2018-12-24T12:04:38.151Z,8.00
2018-12-24T12:07:05.389Z,8.00
2018-12-24T12:09:33.177Z,7.90
2018-12-24T12:12:00.404Z,8.00
2018-12-24T12:14:28.002Z,8.10
2018-12-24T12:16:55.552Z,7.90
2018-12-24T12:19:23.449Z,8.00
2018-12-24T12:21:51.069Z,8.00
2018-12-24T12:24:18.531Z,7.90
2018-12-24T12:26:46.462Z,7.90
2018-12-24T12:29:13.849Z,7.90
2018-12-24T12:31:41.364Z,7.90
2018-12-24T12:34:08.593Z,8.00
2018-12-24T12:36:36.427Z,8.30
2018-12-24T12:39:06.477Z,8.50
2018-12-24T12:41:34.728Z,8.60
2018-12-24T12:44:02.603Z,8.70
2018-12-24T12:46:30.967Z,8.80
2018-12-24T12:48:58.363Z,8.70
2018-12-24T12:51:25.609Z,8.50
2018-12-24T12:53:53.139Z,8.30
2018-12-24T12:56:21.138Z,8.30
2018-12-24T12:58:49.000Z,8.30
2018-12-24T13:01:16.652Z,8.40
2018-12-24T13:03:44.485Z,8.40
2018-12-24T13:06:12.185Z,8.30
2018-12-24T13:08:39.584Z,8.20
2018-12-24T13:11:07.206Z,8.20
2018-12-24T13:13:36.899Z,8.20
2018-12-24T13:16:04.842Z,8.30
2018-12-24T13:18:32.404Z,8.30
2018-12-24T13:21:00.288Z,8.30
2018-12-24T13:23:27.862Z,8.30
2018-12-24T13:25:55.291Z,8.40
2018-12-24T13:28:22.789Z,8.30
2018-12-24T13:30:50.331Z,8.20
2018-12-24T13:33:18.276Z,8.10
2018-12-24T13:35:45.496Z,8.10
2018-12-24T13:38:12.743Z,8.00
2018-12-24T13:40:40.161Z,8.00
2018-12-24T13:43:07.941Z,8.00
2018-12-24T13:45:35.545Z,8.00
2018-12-24T13:48:03.050Z,8.00
2018-12-24T13:50:30.823Z,8.00
2018-12-24T13:52:58.572Z,8.10
2018-12-24T13:55:26.365Z,8.10
2018-12-24T13:57:53.905Z,8.10
2018-12-24T14:00:21.630Z,8.10
2018-12-24T14:02:49.371Z,8.10
2018-12-24T14:05:17.405Z,8.10
2018-12-24T14:07:49.619Z,8.10
2018-12-24T14:10:16.861Z,8.10
2018-12-24T14:13:27.276Z,8.10
2018-12-24T14:15:54.153Z,8.00
2018-12-24T14:18:21.326Z,7.80
2018-12-24T14:20:48.865Z,7.80
2018-12-24T14:23:16.284Z,7.80
2018-12-24T14:25:43.073Z,7.90
2018-12-24T14:28:10.506Z,7.90
2018-12-24T14:30:37.561Z,7.80
2018-12-24T14:33:04.493Z,7.80
2018-12-24T14:35:32.041Z,7.70
2018-12-24T14:37:58.833Z,7.70
2018-12-24T14:40:26.241Z,7.70
2018-12-24T14:42:53.912Z,7.60
2018-12-24T14:45:20.798Z,7.60
2018-12-24T14:47:47.889Z,7.40
2018-12-24T14:50:14.939Z,7.40
2018-12-24T14:52:42.207Z,7.50
2018-12-24T14:55:09.216Z,7.50
2018-12-24T14:57:36.607Z,7.50
2018-12-24T15:00:04.868Z,7.50
2018-12-24T15:02:31.915Z,7.50
2018-12-24T15:04:59.540Z,7.40
2018-12-24T15:07:26.667Z,7.30
2018-12-24T15:09:54.552Z,7.30
2018-12-24T15:12:21.897Z,7.20
2018-12-24T15:14:49.001Z,7.00
2018-12-24T15:17:17.093Z,7.00
2018-12-24T15:19:43.935Z,7.00
2018-12-24T15:22:11.141Z,6.90
2018-12-24T15:24:38.596Z,6.90
2018-12-24T15:27:05.704Z,6.80
2018-12-24T15:29:33.545Z,6.80
2018-12-24T15:32:01.221Z,6.70
2018-12-24T15:34:28.306Z,6.50
2018-12-24T15:36:55.328Z,6.30
2018-12-24T15:39:22.715Z,6.20
2018-12-24T15:41:50.219Z,6.10
2018-12-24T15:44:17.267Z,6.00
2018-12-24T15:46:44.729Z,6.00
2018-12-24T15:49:12.106Z,5.90
2018-12-24T15:51:38.873Z,5.80
2018-12-24T15:54:06.335Z,5.80
2018-12-24T15:56:33.677Z,5.70
2018-12-24T15:59:00.996Z,5.60
2018-12-24T16:01:28.369Z,5.60
2018-12-24T16:03:56.357Z,5.70
2018-12-24T16:06:24.071Z,5.80
2018-12-24T16:08:51.105Z,5.80
2018-12-24T16:11:18.480Z,5.90
2018-12-24T16:13:45.427Z,5.90
2018-12-24T16:16:12.558Z,5.90
2018-12-24T16:18:39.712Z,5.90
2018-12-24T16:21:07.257Z,5.90
2018-12-24T16:23:34.316Z,6.00
2018-12-24T16:26:01.477Z,6.00
2018-12-24T16:28:28.441Z,6.10
2018-12-24T16:30:55.463Z,6.10
2018-12-24T16:33:23.307Z,6.20
2018-12-24T16:35:50.450Z,6.10
2018-12-24T16:38:17.817Z,6.10
2018-12-24T16:40:49.148Z,6.10
2018-12-24T16:43:16.518Z,6.20
2018-12-24T16:45:43.873Z,6.20
2018-12-24T16:48:11.077Z,6.20
2018-12-24T16:50:38.580Z,6.20
2018-12-24T16:53:05.672Z,6.10
2018-12-24T16:55:32.475Z,6.10
2018-12-24T16:57:59.772Z,6.10
2018-12-24T17:00:26.551Z,6.00
2018-12-24T17:02:54.156Z,6.00
2018-12-24T17:05:21.525Z,6.00
2018-12-24T17:07:49.128Z,6.00
2018-12-24T17:10:16.905Z,6.00
2018-12-24T17:12:43.936Z,5.90
2018-12-24T17:15:10.788Z,5.80
2018-12-24T17:17:38.021Z,5.80
2018-12-24T17:20:04.980Z,5.80
2018-12-24T17:22:32.108Z,5.70
2018-12-24T17:24:59.148Z,5.70
2018-12-24T17:27:26.621Z,5.60
2018-12-24T17:29:53.380Z,5.60
2018-12-24T17:32:20.794Z,5.60
2018-12-24T17:34:48.268Z,5.60
2018-12-24T17:37:15.600Z,5.50
2018-12-24T17:39:42.714Z,5.40
2018-12-24T17:42:09.601Z,5.30
2018-12-24T17:44:36.965Z,5.20
2018-12-24T17:47:03.715Z,5.00
2018-12-24T17:49:31.348Z,5.00
2018-12-24T17:51:59.111Z,4.90
2018-12-24T17:54:26.115Z,4.80
2018-12-24T17:56:53.645Z,4.80
2018-12-24T17:59:20.598Z,4.80
2018-12-24T18:01:47.712Z,4.70
2018-12-24T18:04:15.652Z,4.60
2018-12-24T18:06:42.672Z,4.50
2018-12-24T18:09:10.187Z,4.50
2018-12-24T18:11:37.543Z,4.40
2018-12-24T18:14:04.329Z,4.40
2018-12-24T18:16:31.418Z,4.30
2018-12-24T18:18:58.895Z,4.30
2018-12-24T18:21:25.660Z,4.30
2018-12-24T18:23:52.752Z,4.30
2018-12-24T18:26:20.141Z,4.30
2018-12-24T18:28:47.175Z,4.40
2018-12-24T18:31:19.896Z,4.40
2018-12-24T18:33:43.317Z,4.30
2018-12-24T18:36:11.117Z,4.30
2018-12-24T18:38:38.179Z,4.30
2018-12-24T18:41:05.598Z,4.40
2018-12-24T18:43:32.747Z,4.40
2018-12-24T18:46:00.544Z,4.40
2018-12-24T18:48:27.643Z,4.40
2018-12-24T18:50:55.023Z,4.30
2018-12-24T18:53:22.682Z,4.20
2018-12-24T18:55:49.805Z,4.20
2018-12-24T18:58:17.191Z,4.20
2018-12-24T19:00:44.893Z,4.20
2018-12-24T19:03:13.132Z,4.10
2018-12-24T19:05:40.801Z,4.10
2018-12-24T19:08:08.153Z,4.00
2018-12-24T19:10:35.185Z,3.90
2018-12-24T19:13:02.348Z,3.80
2018-12-24T19:15:29.704Z,3.90
2018-12-24T19:17:57.143Z,3.70
2018-12-24T19:20:24.314Z,3.60
2018-12-24T19:22:51.802Z,3.60
2018-12-24T19:25:19.015Z,3.60
2018-12-24T19:27:46.320Z,3.50
2018-12-24T19:30:13.216Z,3.50
2018-12-24T19:32:40.629Z,3.50
2018-12-24T19:35:07.985Z,3.60
2018-12-24T19:37:35.077Z,3.60
2018-12-24T19:40:02.748Z,3.50
2018-12-24T19:42:29.945Z,3.50
2018-12-24T19:44:57.255Z,3.40
2018-12-24T19:47:24.293Z,3.30
2018-12-24T19:49:51.564Z,3.40
2018-12-24T19:52:18.855Z,3.40
2018-12-24T19:54:46.033Z,3.30
2018-12-24T19:57:14.122Z,3.30
2018-12-24T19:59:41.465Z,3.40
2018-12-24T20:02:08.687Z,3.40
2018-12-24T20:04:35.447Z,3.30
2018-12-24T20:07:02.656Z,3.30
2018-12-24T20:09:30.551Z,3.20
2018-12-24T20:12:00.781Z,3.10
2018-12-24T20:14:28.124Z,3.00
2018-12-24T20:16:55.296Z,3.00
2018-12-24T20:19:22.209Z,3.00
2018-12-24T20:21:49.485Z,2.90
2018-12-24T20:24:16.846Z,3.00
2018-12-24T20:26:43.989Z,3.00
2018-12-24T20:29:11.195Z,3.00
2018-12-24T20:31:38.630Z,3.00
2018-12-24T20:34:06.053Z,2.90
2018-12-24T20:36:33.253Z,2.90
2018-12-24T20:39:00.039Z,2.90
2018-12-24T20:41:27.732Z,3.00
2018-12-24T20:43:55.231Z,2.90
2018-12-24T20:46:22.978Z,2.90
2018-12-24T20:48:52.554Z,2.90
2018-12-24T20:51:20.403Z,2.90
2018-12-24T20:53:48.003Z,2.90
2018-12-24T20:56:15.971Z,2.80
2018-12-24T20:58:43.327Z,2.60
2018-12-24T21:01:10.188Z,2.70
2018-12-24T21:03:37.488Z,2.70
2018-12-24T21:06:04.732Z,2.70
2018-12-24T21:08:32.350Z,2.80
2018-12-24T21:10:59.179Z,2.90
2018-12-24T21:13:26.291Z,2.90
2018-12-24T21:15:53.299Z,2.90
2018-12-24T21:18:20.631Z,2.80
2018-12-24T21:20:47.818Z,2.80
2018-12-24T21:23:14.888Z,2.70
2018-12-24T21:25:41.937Z,2.60
2018-12-24T21:28:09.358Z,2.50
2018-12-24T21:30:36.597Z,2.50
2018-12-24T21:33:03.467Z,2.50
2018-12-24T21:35:31.298Z,2.60
2018-12-24T21:37:58.065Z,2.50
2018-12-24T21:40:26.020Z,2.50
2018-12-24T21:42:54.725Z,2.60
2018-12-24T21:45:22.181Z,2.50
2018-12-24T21:47:49.758Z,2.50
2018-12-24T21:50:17.345Z,2.30
2018-12-24T21:52:45.045Z,2.20
2018-12-24T21:55:12.260Z,2.20
2018-12-24T21:57:39.586Z,2.30
2018-12-24T22:00:06.733Z,2.20
2018-12-24T22:02:34.363Z,2.20
2018-12-24T22:05:01.780Z,2.20
2018-12-24T22:07:28.815Z,2.20
2018-12-24T22:09:56.418Z,2.10
2018-12-24T22:12:24.083Z,2.10
2018-12-24T22:14:51.449Z,2.10
2018-12-24T22:17:18.901Z,2.10
2018-12-24T22:19:46.185Z,2.00
2018-12-24T22:22:13.646Z,2.00
2018-12-24T22:24:40.935Z,1.90
2018-12-24T22:27:07.978Z,2.00
2018-12-24T22:29:35.033Z,2.00
2018-12-24T22:32:01.931Z,2.00
2018-12-24T22:34:29.517Z,2.00
2018-12-24T22:36:56.283Z,2.00
2018-12-24T22:39:23.368Z,1.90
2018-12-24T22:41:50.982Z,1.90
2018-12-24T22:44:18.283Z,1.90
2018-12-24T22:46:45.434Z,1.80
2018-12-24T22:49:12.711Z,1.80
2018-12-24T22:51:40.227Z,1.80
2018-12-24T22:54:08.071Z,1.80
2018-12-24T22:56:35.143Z,1.80
2018-12-24T22:59:01.955Z,1.70
2018-12-24T23:01:29.045Z,1.70
2018-12-24T23:03:56.431Z,1.60
2018-12-24T23:06:24.052Z,1.60
2018-12-24T23:08:50.877Z,1.60
2018-12-24T23:11:17.777Z,1.60
2018-12-24T23:13:44.565Z,1.60
2018-12-24T23:16:11.667Z,1.70
2018-12-24T23:18:39.298Z,1.70
2018-12-24T23:21:06.964Z,1.80
2018-12-24T23:23:34.045Z,1.80
2018-12-24T23:26:01.309Z,1.90
2018-12-24T23:28:28.354Z,1.90
2018-12-24T23:30:55.103Z,1.80
2018-12-24T23:33:22.578Z,1.80
2018-12-24T23:35:49.627Z,1.70
2018-12-24T23:38:17.007Z,1.70
2018-12-24T23:40:44.058Z,1.70
2018-12-24T23:43:10.838Z,1.80
2018-12-24T23:45:37.678Z,1.90
2018-12-24T23:48:05.072Z,1.80
2018-12-24T23:50:32.155Z,1.70
2018-12-24T23:52:59.506Z,1.90
2018-12-24T23:55:26.258Z,1.90
2018-12-24T23:57:53.747Z,1.90
